createdAt,value
2023-08-12T00:04:16.545Z,101000.00
2023-08-12T00:09:19.384Z,100999.07
2023-08-12T00:14:22.195Z,101005.02
2023-08-12T00:19:28.740Z,101008.68
2023-08-12T00:24:31.783Z,101008.87
2023-08-12T00:29:34.569Z,101009.41
2023-08-12T00:34:37.755Z,101015.61
2023-08-12T00:39:40.642Z,101017.85
2023-08-12T00:44:43.468Z,101017.81
2023-08-12T00:49:46.900Z,101009.66
2023-08-12T00:54:49.802Z,101007.79
2023-08-12T00:59:52.855Z,101002.73
2023-08-12T01:04:55.662Z,101007.59
2023-08-12T01:09:58.517Z,101008.85
2023-08-12T01:15:18.397Z,101006.86
2023-08-12T01:20:28.425Z,101007.73
2023-08-12T01:25:31.155Z,101004.58
2023-08-12T01:30:38.995Z,101007.16
2023-08-12T01:35:50.475Z,101013.81
2023-08-12T01:40:53.685Z,101022.64
2023-08-12T01:45:56.704Z,101027.90
2023-08-12T01:50:59.961Z,101026.07
2023-08-12T01:56:02.747Z,101025.31
2023-08-12T02:01:05.499Z,101029.07
2023-08-12T02:06:08.362Z,101024.91
2023-08-12T02:11:11.548Z,101031.84
2023-08-12T02:16:14.311Z,101033.27
2023-08-12T02:21:17.717Z,101033.08
2023-08-12T02:26:21.832Z,101036.05
2023-08-12T02:31:24.649Z,101037.48
2023-08-12T02:36:28.067Z,101038.90
2023-08-12T02:41:30.888Z,101033.27
2023-08-12T02:46:33.710Z,101033.12
2023-08-12T02:51:37.434Z,101028.11
2023-08-12T02:56:41.317Z,101028.38
2023-08-12T03:01:44.164Z,101024.13
2023-08-12T03:06:47.477Z,101023.61
2023-08-12T03:11:51.228Z,101024.34
2023-08-12T03:16:54.065Z,101027.10
2023-08-12T03:21:56.870Z,101028.21
2023-08-12T03:26:59.691Z,101029.61
2023-08-12T03:32:02.584Z,101029.89
2023-08-12T03:37:05.634Z,101029.39
2023-08-12T03:42:08.479Z,101030.92
2023-08-12T03:47:12.251Z,101032.57
2023-08-12T03:52:15.546Z,101033.46
2023-08-12T03:57:18.290Z,101031.73
2023-08-12T04:02:21.125Z,101030.56
2023-08-12T04:07:24.011Z,101028.40
2023-08-12T04:12:26.833Z,101026.36
2023-08-12T04:17:29.596Z,101022.82
2023-08-12T04:22:32.417Z,101022.48
2023-08-12T04:27:35.578Z,101024.73
2023-08-12T04:32:38.401Z,101029.64
2023-08-12T04:37:41.618Z,101026.34
2023-08-12T04:42:44.342Z,101021.91
2023-08-12T04:47:47.319Z,101025.65
2023-08-12T04:52:51.270Z,101025.85
2023-08-12T04:57:55.137Z,101021.45
2023-08-12T05:02:58.103Z,101029.58
2023-08-12T05:08:01.413Z,101027.92
2023-08-12T05:13:04.468Z,101025.81
2023-08-12T05:18:07.623Z,101026.03
2023-08-12T05:23:10.524Z,101017.13
2023-08-12T05:28:13.323Z,101013.55
2023-08-12T05:33:16.422Z,101018.75
2023-08-12T05:38:19.291Z,101019.54
2023-08-12T05:43:22.097Z,101015.80
2023-08-12T05:48:25.213Z,101019.51
2023-08-12T05:53:28.070Z,101011.14
2023-08-12T05:58:30.853Z,101010.16
2023-08-12T06:03:33.661Z,101001.39
2023-08-12T06:08:36.913Z,101008.48
2023-08-12T06:13:39.685Z,101013.15
2023-08-12T06:18:42.438Z,101012.21
2023-08-12T06:23:45.390Z,100999.46
2023-08-12T06:28:48.115Z,101005.19
2023-08-12T06:33:50.867Z,101002.17
2023-08-12T06:38:54.158Z,101000.13
2023-08-12T06:43:57.399Z,101000.59
2023-08-12T06:49:00.761Z,100999.52
2023-08-12T06:54:03.787Z,101001.85
2023-08-12T06:59:07.145Z,100997.15
2023-08-12T07:04:10.018Z,100987.83
2023-08-12T07:09:13.033Z,100987.16
2023-08-12T07:14:17.175Z,100984.70
2023-08-12T07:19:20.412Z,100981.85
2023-08-12T07:24:23.962Z,100983.23
2023-08-12T07:29:27.243Z,100985.23
2023-08-12T07:34:31.500Z,100979.64
2023-08-12T07:39:35.168Z,100970.52
2023-08-12T07:44:38.057Z,100965.04
2023-08-12T07:49:42.874Z,100963.18
2023-08-12T07:54:45.995Z,100961.61
2023-08-12T07:59:50.388Z,100958.65
2023-08-12T08:04:53.338Z,100947.99
2023-08-12T08:09:59.394Z,100942.48
2023-08-12T08:15:04.358Z,100940.80
2023-08-12T08:20:08.025Z,100935.06
2023-08-12T08:25:11.526Z,100937.98
2023-08-12T08:30:14.570Z,100934.13
2023-08-12T08:35:17.741Z,100930.02
2023-08-12T08:40:21.873Z,100926.83
2023-08-12T08:45:26.706Z,100922.79
2023-08-12T08:50:33.534Z,100920.02
2023-08-12T08:55:38.674Z,100912.52
2023-08-12T09:00:42.724Z,100914.23
2023-08-12T09:05:54.024Z,100919.17
2023-08-12T09:10:58.540Z,100916.05
2023-08-12T09:16:02.389Z,100914.17
2023-08-12T09:21:06.743Z,100909.36
2023-08-12T09:26:19.217Z,100904.73
2023-08-12T09:31:27.957Z,100898.92
2023-08-12T09:36:32.222Z,100889.33
2023-08-12T09:41:36.873Z,100889.57
2023-08-12T09:46:40.211Z,100883.50
2023-08-12T09:51:45.952Z,100878.38
2023-08-12T09:56:50.463Z,100867.15
2023-08-12T10:01:56.915Z,100858.97
2023-08-12T10:07:01.743Z,100848.82
2023-08-12T10:12:06.911Z,100846.61
2023-08-12T10:17:11.009Z,100840.79
2023-08-12T10:22:15.985Z,100841.05
2023-08-12T10:27:19.805Z,100844.10
2023-08-12T10:32:22.967Z,100838.11
2023-08-12T10:37:27.672Z,100827.79
2023-08-12T10:42:48.251Z,100827.16
2023-08-12T10:48:00.836Z,100824.16
2023-08-12T10:53:33.144Z,100826.31
2023-08-12T10:58:45.625Z,100821.05
2023-08-12T11:03:51.793Z,100822.17
2023-08-12T11:08:55.049Z,100818.33
2023-08-12T11:13:58.420Z,100815.02
2023-08-12T11:19:01.310Z,100813.99
2023-08-12T11:24:05.574Z,100810.83
2023-08-12T11:29:12.557Z,100803.19
2023-08-12T11:34:16.928Z,100796.46
2023-08-12T11:39:19.960Z,100789.27
2023-08-12T11:44:24.214Z,100786.52
2023-08-12T11:49:26.988Z,100784.70
2023-08-12T11:54:30.269Z,100784.83
2023-08-12T11:59:33.286Z,100778.58
2023-08-12T12:04:36.233Z,100768.15
2023-08-12T12:09:43.947Z,100764.35
2023-08-12T12:14:48.218Z,100764.15
2023-08-12T12:19:59.876Z,100762.61
2023-08-12T12:25:11.469Z,100757.59
2023-08-12T12:30:16.418Z,100751.19
2023-08-12T12:35:20.063Z,100743.23
2023-08-12T12:40:22.988Z,100738.52
2023-08-12T12:45:29.181Z,100740.46
2023-08-12T12:50:34.633Z,100730.08
2023-08-12T12:55:45.627Z,100730.29
2023-08-12T13:00:56.702Z,100726.86
2023-08-12T13:06:08.696Z,100721.19
2023-08-12T13:11:12.590Z,100723.96
2023-08-12T13:16:16.094Z,100715.96
2023-08-12T13:21:21.100Z,100708.98
2023-08-12T13:26:27.401Z,100708.65
2023-08-12T13:31:30.701Z,100711.08
2023-08-12T13:36:35.683Z,100704.14
2023-08-12T13:41:44.846Z,100698.77
2023-08-12T13:46:47.801Z,100696.52
2023-08-12T13:51:54.025Z,100685.70
2023-08-12T13:57:00.798Z,100681.19
2023-08-12T14:02:04.162Z,100674.63
2023-08-12T14:07:07.450Z,100672.27
2023-08-12T14:12:25.216Z,100673.48
2023-08-12T14:17:29.196Z,100668.50
2023-08-12T14:22:32.494Z,100667.46
2023-08-12T14:27:35.608Z,100658.96
2023-08-12T14:32:38.496Z,100653.39
2023-08-12T14:37:41.424Z,100643.71
2023-08-12T14:42:44.208Z,100641.60
2023-08-12T14:47:48.707Z,100636.05
2023-08-12T14:52:51.484Z,100632.13
2023-08-12T14:57:54.239Z,100628.58
2023-08-12T15:02:57.010Z,100616.39
2023-08-12T15:08:01.056Z,100612.30
2023-08-12T15:13:05.653Z,100612.15
2023-08-12T15:18:08.584Z,100613.38
2023-08-12T15:23:12.048Z,100613.38
2023-08-12T15:28:14.968Z,100611.12
2023-08-12T15:33:18.068Z,100608.30
2023-08-12T15:38:24.989Z,100599.38
2023-08-12T15:43:29.199Z,100596.23
2023-08-12T15:48:32.218Z,100590.38
2023-08-12T15:53:36.579Z,100587.50
2023-08-12T15:58:40.338Z,100582.93
2023-08-12T16:03:43.526Z,100583.48
2023-08-12T16:08:56.882Z,100580.06
2023-08-12T16:14:11.344Z,100575.02
2023-08-12T16:19:14.857Z,100564.63
2023-08-12T16:24:17.703Z,100558.22
2023-08-12T16:29:20.570Z,100552.69
2023-08-12T16:34:23.905Z,100550.31
2023-08-12T16:39:26.669Z,100547.50
2023-08-12T16:44:29.819Z,100544.39
2023-08-12T16:49:32.616Z,100542.37
2023-08-12T16:54:35.449Z,100539.94
2023-08-12T16:59:38.298Z,100535.19
2023-08-12T17:04:41.521Z,100540.92
2023-08-12T17:09:47.229Z,100545.08
2023-08-12T17:14:50.582Z,100551.25
2023-08-12T17:19:53.355Z,100543.27
2023-08-12T17:24:56.175Z,100542.67
2023-08-12T17:29:59.007Z,100543.86
2023-08-12T17:35:01.872Z,100550.96
2023-08-12T17:40:06.871Z,100546.69
2023-08-12T17:45:09.792Z,100542.52
2023-08-12T17:50:13.233Z,100539.58
2023-08-12T17:55:16.200Z,100534.94
2023-08-12T18:00:21.414Z,100539.77
2023-08-12T18:05:25.117Z,100537.48
2023-08-12T18:10:28.433Z,100539.75
2023-08-12T18:15:31.275Z,100539.21
2023-08-12T18:20:34.141Z,100536.95
2023-08-12T18:25:36.955Z,100535.00
2023-08-12T18:30:39.757Z,100529.23
2023-08-12T18:35:42.601Z,100533.05
2023-08-12T18:40:45.365Z,100537.27
2023-08-12T18:45:48.109Z,100539.77
2023-08-12T18:50:50.931Z,100534.02
2023-08-12T18:55:54.138Z,100535.07
2023-08-12T19:00:57.008Z,100531.45
2023-08-12T19:06:01.055Z,100539.41
2023-08-12T19:11:04.460Z,100539.84
2023-08-12T19:16:07.270Z,100537.27
2023-08-12T19:21:10.141Z,100537.14
2023-08-12T19:26:12.873Z,100545.63
2023-08-12T19:31:16.350Z,100549.84
2023-08-12T19:36:19.130Z,100544.94
2023-08-12T19:41:22.607Z,100543.91
2023-08-12T19:46:26.108Z,100548.44
2023-08-12T19:51:29.950Z,100548.17
2023-08-12T19:56:36.379Z,100549.85
2023-08-12T20:01:44.040Z,100540.69
2023-08-12T20:06:49.142Z,100539.31
2023-08-12T20:11:52.329Z,100530.78
2023-08-12T20:16:55.400Z,100524.85
2023-08-12T20:22:00.439Z,100525.77
2023-08-12T20:27:04.092Z,100525.95
2023-08-12T20:32:07.018Z,100531.38
2023-08-12T20:37:09.960Z,100526.84
2023-08-12T20:42:12.721Z,100524.70
2023-08-12T20:47:15.926Z,100524.55
2023-08-12T20:52:19.032Z,100521.46
2023-08-12T20:57:21.756Z,100522.09
2023-08-12T21:02:24.546Z,100522.50
2023-08-12T21:07:27.659Z,100520.20
2023-08-12T21:12:30.421Z,100518.61
2023-08-12T21:17:33.275Z,100511.59
2023-08-12T21:22:36.030Z,100511.89
2023-08-12T21:27:38.791Z,100512.40
2023-08-12T21:32:41.652Z,100513.33
2023-08-12T21:37:44.455Z,100508.27
2023-08-12T21:42:47.495Z,100498.24
2023-08-12T21:47:50.388Z,100492.48
2023-08-12T21:52:53.223Z,100489.21
2023-08-12T21:57:56.029Z,100482.96
2023-08-12T22:02:59.334Z,100484.81
2023-08-12T22:08:02.705Z,100487.39
2023-08-12T22:13:06.329Z,100490.84
2023-08-12T22:18:09.265Z,100491.17
2023-08-12T22:23:12.155Z,100484.73
2023-08-12T22:28:15.096Z,100475.46
2023-08-12T22:33:17.878Z,100467.23
2023-08-12T22:38:21.116Z,100465.16
2023-08-12T22:43:24.039Z,100466.63
2023-08-12T22:48:26.930Z,100469.12
2023-08-12T22:53:30.036Z,100470.46
2023-08-12T22:58:32.948Z,100462.59
2023-08-12T23:03:35.821Z,100464.65
2023-08-12T23:08:38.592Z,100462.98
2023-08-12T23:13:41.351Z,100458.58
2023-08-12T23:18:44.448Z,100450.39
2023-08-12T23:23:47.281Z,100444.10
2023-08-12T23:28:50.089Z,100437.48
2023-08-12T23:33:52.860Z,100429.37
2023-08-12T23:38:55.698Z,100428.88
2023-08-12T23:44:00.259Z,100428.70
2023-08-12T23:49:03.085Z,100423.00
2023-08-12T23:54:05.833Z,100421.84
2023-08-12T23:59:08.580Z,100422.08
